Airfield :
LOGIN :

Register | Disclaimer

   EN    FR    IT 

 










Legend :    VFR   Marginal VFR   IFR   Intensive IFR   Very Intensive IFR
Visi :
Ceiling :
>= 8 km
>= 3000ft
5 to 8 km
1000 to 3000 ft
1500m to 5 km
500 to 1000 ft
800 to 1500m
200 to 500 ft
< 800m
< 200 ft
Symbols :   Thunderstorms  Fog  Heavy snow  Heavy precipitations  Wind > 20 kt
SIGMETs :     Misc.  Thunderstorms  Icing  Turbulence  Mountain Waves  Volcanic Ashes






- Airport Elevation : 325 ft


LPCS - Cascais

CURRENT METAR :
  • 271230Z 21008KT 9999 FEW026 24/17 Q1023

EXPIRED METARs :
  • 271200Z 21007KT 180V240 9999 FEW024 23/17 Q1024
  • 271130Z 21008KT 9999 FEW024 22/17 Q1024
  • 271100Z 21007KT 170V240 9999 SCT020 22/17 Q1024
  • 271030Z 21006KT 9999 SCT020 22/17 Q1024
  • 271000Z 21006KT 180V250 9999 FEW018 21/16 Q1024

TAF TAF LPCS
Valid from the 27 at 12:00 until the 27 at 21:00 UTC


271100Z 2712/2721 21007KT 9999 SCT020
BECMG 2712/2714 26007KT
BECMG 2715/2717 34010KT
BECMG 2719/2721 5000 BR BKN008



MET'MAP, your aeronautical weather chart ! - Copyright ORBIFLY December 2007 - Disclaimer

ORBIFLY MET'MAP TEAM :

Programming & Development : Alexandra Zaïnal
Concept & original design : Baudouin d'Aumeries
Assistance for programming : Marc-Olivier Méhu
Technical & hardware support : Manuel Goepfert

Contact : metmap@orbifly.com




SOURCES & CREDITS :

   NOAA